Historyczne dane pomiarowe

Dodano dane terminowe – wersja testowa.

Dane z okresu 1951-2019

Wersja bazy: 1.34 [2019-03-16, lista zmian], aktualizacja planowana na 2019-04-15

Dane meteo z obszaru Polski uzyskane na podstawie danych udostępnionych przez Instytut Meteorologii i Gospodarki Wodnej – Państwowy Instytut Badawczy.

 

Wybierz Datę:    

       

TemperaturaWilgotnośćWiatrCiśnienieOpadyŚniegCzas trwania zjawisk
 Stacja t tx tn tng RH VA  wxwx mslp ppp RRR   cm mm wxwxwxwxwxwxwx
1987-08-14 14.6 20.7 8.0 6.7 80.5- 7.3 1.7---- 2.3------------
1987-08-13 12.8 15.6 8.4 6.7 90.0- 5.0 3.3---- 0.0------------
1987-08-12 13.4 18.3 10.1 8.5 75.3- 5.3 7.0---- 0.0------------
1987-08-11 14.4 17.6 11.2 9.8 79.3- 4.3 5.7---- 0.0------------
1987-08-10 15.2 18.9 13.4 8.6 87.8- 8.0 4.3---- 0.3------------
1987-08-09 16.9 21.9 8.4 4.5 62.8- 4.3 3.7---- 8.5------------
1987-08-08 13.6 18.6 10.6 10.5 76.5- 4.3 3.0---- 0.0------------
1987-08-07 13.7 18.2 9.1 5.8 69.5- 5.0 6.3---- 0.9------------
1987-08-06 12.2 17.3 7.1 3.8 78.8- 3.0 3.3---- 1.6------------
1987-08-05 13.3 19.0 6.4 3.0 72.5- 0.3 3.3---- 0.0------------
1987-08-04 14.4 18.9 8.5 4.4 84.0- 4.7 3.3---- 3.9------------
1987-08-03 13.9 18.3 11.2 9.2 72.8- 4.3 3.3---- 0.0------------
1987-08-02 15.5 19.0 13.9 11.7 74.3- 5.3 4.0---- 2.0------------
1987-08-01 16.8 22.0 10.4 6.2 71.0- 4.3 3.7---- 4.6------------
1987-07-31 15.7 19.5 12.1 8.6 88.3- 7.0 3.7---- 0.6------------
1987-07-30 16.6 22.2 10.9 6.8 72.5- 4.0 2.3---- 0.0------------
1987-07-29 13.9 19.7 10.4 8.1 78.8- 3.3 4.0---- 0.0------------
1987-07-28 14.5 19.9 9.9 6.9 79.8- 7.3 4.0---- 2.4------------
1987-07-27 12.0 16.5 8.6 7.2 83.0- 3.0 4.7---- 0.4------------
1987-07-26 14.0 20.0 11.9 9.8 88.3- 8.0 3.0---- 11.4------------
1987-07-25 19.0 24.3 15.9 12.1 77.8- 6.7 2.7---- 2.0------------
1987-07-24 19.2 26.1 13.1 10.6 80.5- 4.0 2.3---- 0.0------------
1987-07-23 21.8 28.3 15.4 13.1 78.5- 1.3 3.0---- 0.0------------
1987-07-22 21.1 29.3 13.4 10.7 82.3- 4.3 1.3---- 5.6------------
1987-07-21 18.8 26.5 10.9 8.5 79.3- 3.0 2.7---- 0.0------------
1987-07-20 20.8 28.0 16.0 14.3 75.5- 5.3 4.0---- 0.0------------
1987-07-19 19.2 24.6 13.9 12.1 72.0- 2.3 5.0---- 0.0------------
1987-07-18 18.6 21.8 16.8 16.0 89.5- 5.3 3.7---- 5.3------------
1987-07-17 20.2 27.4 14.0 11.8 70.5- 3.7 4.3---- 3.0------------
1987-07-16 18.2 25.4 8.5 5.4 67.3- 2.7 2.7---- 0.0------------
1987-07-15 16.2 22.9 7.0 4.4 70.8- 1.3 2.0---- 0.0------------
1987-07-14 14.7 19.1 10.4 7.8 78.0- 5.0 4.3---- 0.0------------
1987-07-13 17.4 21.5 13.4 11.4 73.0- 3.0 5.0---- 0.0------------
1987-07-12 18.9 27.0 14.8 14.0 85.3- 6.0 3.7---- 3.1------------
1987-07-11 15.7 20.9 7.5 5.4 65.8- 4.3 4.7---- 7.6------------
1987-07-10 14.4 18.5 10.4 8.8 71.5- 3.0 5.7---- 0.0------------
1987-07-09 19.0 24.4 15.7 13.0 85.5- 6.7 3.7---- 12.2------------
1987-07-08 22.1 29.3 13.4 7.6 56.8- 1.0 3.7---- 0.0------------
1987-07-07 19.8 27.2 8.4 5.4 58.8- 0.0 3.0---- 0.0------------
1987-07-06 15.7 23.5 5.0 2.4 64.0- 1.0 1.3---- 0.0------------
1987-07-05 15.6 21.3 9.0 6.8 74.5- 2.3 3.0---- 0.4------------
1987-07-04 16.8 21.9 7.7 5.6 66.0- 3.7 3.7---- 0.0------------
1987-07-03 18.7 22.4 15.5 14.6 57.5- 1.3 3.3---- 0.0------------
1987-07-02 20.6 27.3 17.7 16.5 67.8- 2.7 4.3---- 0.0------------
1987-07-01 25.8 31.0 18.8 14.6 70.5- 1.7 3.7---- 0.0------------
1987-06-30 23.0 27.4 18.5 15.4 78.5- 0.7 3.3---- 0.0------------
1987-06-29 16.3 24.0 6.7 4.5 71.0- 2.0 3.0---- 0.0------------
1987-06-28 16.5 21.3 11.9 8.8 87.3- 6.7 3.7---- 0.8------------
1987-06-27 17.2 20.9 14.5 12.0 87.3- 6.7 3.7---- 0.0------------
1987-06-26 15.1 21.7 7.4 4.4 74.0- 2.7 4.0---- 0.0------------
1987-06-25 13.4 17.8 10.6 7.7 88.8- 6.7 4.3---- 0.5------------
1987-06-24 16.7 20.4 12.5 10.6 76.3- 3.7 3.7---- 8.8------------
1987-06-23 16.0 22.9 9.2 7.5 81.0- 4.3 3.7---- 0.3------------
1987-06-22 17.4 23.6 11.1 8.7 78.0- 5.3 2.7---- 3.1------------
1987-06-21 17.0 22.6 8.7 6.3 73.3- 3.7 3.0---- 7.1------------
1987-06-20 14.8 21.2 4.8 2.9 63.0- 2.3 3.0---- 0.0------------
1987-06-19 12.6 17.2 6.6 4.7 71.8- 2.7 3.3---- 0.0------------
1987-06-18 11.3 17.7 4.6 1.1 77.0- 4.7 2.7---- 1.7------------
1987-06-17 12.4 16.0 9.5 7.6 81.5- 5.3 3.0---- 0.0------------
1987-06-16 16.4 25.1 12.0 11.6 84.5- 5.7 5.7---- 0.0------------
502.5 ms

 

Źródłem pochodzenia danych jest Instytut Meteorologii i Gospodarki Wodnej – Państwowy Instytut Badawczy. Dane Instytutu Meteorologii i Gospodarki Wodnej – Państwowego Instytutu Badawczego zostały przetworzone.

Dane źródłowe można odnaleźć na stronie https://dane.imgw.pl